Latest Coastal Weather Observations for King Island Airport

IDV60701

Issued at 7:21 pm EDT Monday 5 December 2016 (issued every 10 minutes, with the page automatically refreshed every 10 minutes)

About coastal observations | Map of coastal stations | Coastal observations for VIC | Marine services | Other Formats
Station Details ID: 098017 Name: KING ISLAND AIRPORT Lat: -39.88 Lon: 143.88 Height: 37.0 m
Data from the previous 72 hours. | See also: Recent months at King Island Airport
Date/Time
EDT
Temp
°C
Wind Pressure Rain since
9am
mm
Weather Cloud Vis
km
Sea
Height
m
Swell
Dir  Spd
kts
Gust
kts
hPa Trend Height
m
Period
s
Dir
05/07:00pm 14.8 SW 11 15 1013.7 - 0.0 - - 10 - - - -
05/06:30pm 15.2 SW 12 16 1013.4 - 0.0 - Partly cloudy 10 - - - -
05/06:00pm 15.2 SW 12 17 1013.1 - 0.0 - Mostly clear 10 - - - -
05/05:30pm 16.0 SW 14 18 1012.8 - 0.0 - Partly cloudy 10 - - - -
05/05:00pm 15.5 SW 13 17 1013.2 - 0.0 - Partly cloudy 10 - - - -
05/04:30pm 15.5 SW 14 19 1013.6 - 0.0 - Partly cloudy 10 - - - -
05/04:00pm 15.7 SW 13 18 1012.9 - 0.0 - Partly cloudy 10 - - - -
05/03:30pm 16.4 SW 14 18 1012.6 - 0.0 - Partly cloudy 10 - - - -
05/03:00pm 15.8 SW 13 19 1012.4 - 0.0 - Cloudy 10 - - - -
05/02:30pm 16.0 WSW 14 18 1012.3 - 0.0 - Partly cloudy 10 - - - -
05/02:00pm 15.9 WSW 16 21 1012.6 - 0.0 - Partly cloudy 10 - - - -
05/01:30pm 16.3 SW 16 20 1012.3 - 0.0 - Partly cloudy 10 - - - -
05/01:00pm 15.3 SW 15 20 1012.3 - 0.0 - Partly cloudy 10 - - - -
05/12:48pm 15.3 SW 13 20 1012.4 - 0.0 - Partly cloudy 10 - - - -
05/12:30pm 15.0 WSW 16 20 1012.2 - 0.0 - Partly cloudy 10 - - - -
05/12:23pm 15.1 SW 16 21 1012.2 - 0.0 - Partly cloudy 10 - - - -
05/12:00pm 15.5 SW 17 23 1011.7 - 0.0 - Cloudy 10 - - - -
05/11:30am 15.7 WSW 15 22 1011.6 - 0.0 - Partly cloudy 10 - - - -
05/11:00am 15.2 WSW 17 25 1011.5 - 0.0 - Partly cloudy 10 - - - -
05/10:30am 16.4 WSW 15 20 1010.8 - 0.0 - Partly cloudy 10 - - - -
05/10:00am 15.2 W 14 19 1010.7 - 0.0 - Partly cloudy 10 - - - -
05/09:30am 15.6 WSW 16 21 1010.4 - 0.0 - Partly cloudy 10 - - - -
05/09:00am 16.0 W 16 23 1009.9 - 0.6 - Mostly clear 10 - - - -
05/08:30am 15.5 WSW 17 22 1009.3 - 0.6 - Partly cloudy 10 - - - -
05/08:03am 14.5 WSW 16 28 1008.9 - 0.6 - Cloudy 10 - - - -
05/08:00am 14.5 WSW 16 22 1008.9 - 0.6 - Partly cloudy 10 - - - -
05/07:30am 14.5 WSW 16 21 1008.2 - 0.6 - Partly cloudy 10 - - - -
05/07:13am 14.5 WSW 17 28 1008.0 - 0.6 - Partly cloudy 10 - - - -
05/07:00am 14.1 WSW 18 26 1007.7 - 0.6 - Partly cloudy 10 - - - -
05/06:30am 14.4 W 17 24 1007.2 - 0.6 - Cloudy 10 - - - -
05/06:12am 14.2 W 17 27 1007.1 - 0.6 - Partly cloudy 10 - - - -
05/06:00am 14.1 W 20 29 1006.7 - 0.6 - Partly cloudy 10 - - - -
05/05:45am 13.7 W 17 29 1006.5 - 0.6 - Partly cloudy 10 - - - -
05/05:30am 13.9 WSW 20 27 1006.2 - 0.6 - Partly cloudy 10 - - - -
05/05:00am 13.8 WSW 19 29 1005.5 - 0.6 - Partly cloudy 10 - - - -
05/04:30am 14.0 WSW 18 27 1004.9 - 0.6 - Partly cloudy 10 - - - -
05/04:00am 13.9 WSW 18 25 1004.3 - 0.6 - Partly cloudy 10 - - - -
05/03:52am 14.2 W 19 28 1004.2 - 0.6 - Partly cloudy 10 - - - -
05/03:39am 14.2 W 17 27 1004.0 - 0.6 - Partly cloudy 10 - - - -
05/03:30am 14.5 WSW 16 22 1003.9 - 0.6 - Partly cloudy 10 - - - -
05/03:00am 15.2 W 18 26 1003.3 - 0.6 Rain Cloudy 10 - - - -
05/02:32am 15.5 W 18 31 1002.9 - 0.6 - Partly cloudy 10 - - - -
05/02:30am 15.5 W 19 31 1002.8 - 0.6 - - 10 - - - -
05/02:15am 15.8 W 19 29 1002.7 - 0.6 - Partly cloudy 9 - - - -
05/02:10am 15.9 W 18 28 1002.6 - 0.6 - Partly cloudy 7 - - - -
05/02:00am 16.3 WNW 18 24 1002.4 - 0.4 - Cloudy 5 - - - -
05/01:59am 16.4 WNW 19 26 1002.5 - 0.4 - Cloudy 5 - - - -
05/01:45am 16.9 WNW 18 25 1002.3 - 0.4 - Partly cloudy 10 - - - -
05/01:30am 17.2 WNW 18 25 1002.1 - 0.4 - Partly cloudy 10 - - - -
05/01:19am 17.6 WNW 21 28 1001.9 - 0.4 - Partly cloudy 10 - - - -
05/01:17am 17.7 WNW 22 30 1001.9 - 0.4 - Partly cloudy 10 - - - -
05/01:00am 18.8 NW 30 40 1001.6 - 0.4 - Partly cloudy 10 - - - -
05/12:54am 19.6 NW 29 40 1001.4 - 0.4 - Partly cloudy 10 - - - -
05/12:51am 19.9 NNW 27 40 1001.3 - 0.4 - Partly cloudy 10 - - - -
05/12:30am 20.6 N 24 34 1000.1 - 0.2 - Partly cloudy 10 - - - -
05/12:16am 21.0 N 18 29 1000.0 - 0.2 - Partly cloudy 10 - - - -
05/12:00am 20.1 N 18 25 999.8 - 0.2 Rain Cloudy 10 - - - -
 
Date/Time
EDT
Temp
°C
Wind Pressure Rain since
9am
mm
Weather Cloud Vis
km
Sea
Height
m
Swell
Dir  Spd
kts
Gust
kts
hPa Trend Height
m
Period
s
Dir
04/11:30pm 19.8 N 16 21 1000.3 - 0.2 - Partly cloudy 10 - - - -
04/11:00pm 18.9 NNE 12 18 1001.0 - 0.0 - Partly cloudy 10 - - - -
04/10:30pm 19.9 NNE 17 22 1001.3 - 0.0 - Partly cloudy 10 - - - -
04/10:00pm 20.3 N 16 24 1001.6 - 0.0 - Partly cloudy 10 - - - -
04/09:30pm 19.6 N 11 17 1002.1 - 0.0 - Cloudy 10 - - - -
04/09:00pm 20.5 N 13 18 1002.9 - 0.0 - Cloudy 10 - - - -
04/08:30pm 19.4 N 9 14 1003.1 - 0.0 - Partly cloudy 10 - - - -
04/08:00pm 18.7 N 13 19 1003.5 - 0.0 - Partly cloudy 10 - - - -
04/07:30pm 19.0 N 17 24 1004.0 - 0.0 - Partly cloudy 10 - - - -
04/07:26pm 19.3 N 15 24 1004.0 - 0.0 - Partly cloudy 10 - - - -
04/07:00pm 18.4 ENE 6 9 1003.9 - 0.0 - Cloudy 10 - - - -
04/06:30pm 18.7 E 8 11 1003.1 - 0.0 - Partly cloudy 10 - - - -
04/06:00pm 19.1 ENE 9 12 1003.5 - 0.0 - Partly cloudy 10 - - - -
04/05:30pm 20.0 ENE 10 14 1004.1 - 0.0 - Partly cloudy 10 - - - -
04/05:00pm 20.4 ENE 11 15 1004.4 - 0.0 - - 10 - - - -
04/04:30pm 21.5 ENE 13 20 1004.8 - 0.0 - - 10 - - - -
04/04:00pm 20.0 ENE 14 18 1005.1 - 0.0 - Partly cloudy 10 - - - -
04/03:30pm 19.3 E 13 17 1005.3 - 0.0 - Partly cloudy 10 - - - -
04/03:00pm 19.5 ENE 13 17 1006.3 - 0.0 - Partly cloudy 10 - - - -
04/02:30pm 20.2 ENE 13 16 1006.4 - 0.0 - Partly cloudy 10 - - - -
04/02:00pm 20.3 ENE 15 20 1006.6 - 0.0 - - 10 - - - -
04/01:30pm 19.7 ENE 16 20 1007.3 - 0.0 - - 10 - - - -
04/01:00pm 19.9 ENE 15 18 1007.7 - 0.0 - - 10 - - - -
04/12:30pm 19.0 ENE 15 20 1007.7 - 0.0 - - 10 - - - -
04/12:00pm 19.2 E 16 20 1008.2 - 0.0 - Mostly clear 10 - - - -
04/11:30am 19.1 E 17 22 1008.3 - 0.0 - - 10 - - - -
04/11:00am 18.0 ENE 16 22 1008.8 - 0.0 - - 10 - - - -
04/10:30am 17.2 ENE 18 23 1009.5 - 0.0 - - 10 - - - -
04/10:00am 17.1 ENE 17 21 1010.0 - 0.0 - Partly cloudy 10 - - - -
04/09:30am 16.7 ENE 17 22 1010.4 - 0.0 - Partly cloudy 10 - - - -
04/09:00am 16.3 ENE 17 22 1010.3 - 0.0 - - 10 - - - -
04/08:30am 15.7 ENE 16 21 1010.5 - 0.0 - - 10 - - - -
04/08:00am 15.3 E 13 18 1010.7 - 0.0 - - 10 - - - -
04/07:30am 14.3 E 13 18 1010.6 - 0.0 - - 10 - - - -
04/07:00am 13.6 ENE 14 19 1010.8 - 0.0 - - 10 - - - -
04/06:30am 12.6 ENE 13 18 1010.9 - 0.0 - - 10 - - - -
04/06:00am 11.9 E 13 16 1011.1 - 0.0 - - 10 - - - -
04/05:30am 11.4 E 12 15 1011.1 - 0.0 - - 10 - - - -
04/05:00am 11.0 E 11 14 1011.5 - 0.0 - - 10 - - - -
04/04:30am 11.2 E 11 15 1011.7 - 0.0 - - 10 - - - -
04/04:00am 11.1 E 10 14 1011.8 - 0.0 - - 10 - - - -
04/03:30am 10.8 E 11 14 1011.9 - 0.0 - - 10 - - - -
04/03:00am 10.6 E 10 13 1012.2 - 0.0 - - 10 - - - -
04/02:30am 9.1 E 8 9 1012.8 - 0.0 - - 10 - - - -
04/02:00am 8.4 E 8 9 1013.2 - 0.0 - - 10 - - - -
04/01:30am 8.4 E 8 9 1013.7 - 0.0 - - 10 - - - -
04/01:00am 8.1 ESE 8 9 1014.2 - 0.0 - - 10 - - - -
04/12:30am 8.1 E 8 8 1014.5 - 0.0 - - 10 - - - -
04/12:00am 8.3 E 7 8 1015.0 - 0.0 - - 10 - - - -
 
Date/Time
EDT
Temp
°C
Wind Pressure Rain since
9am
mm
Weather Cloud Vis
km
Sea
Height
m
Swell
Dir  Spd
kts
Gust
kts
hPa Trend Height
m
Period
s
Dir
03/11:30pm 8.4 E 7 8 1015.1 - 0.0 - - 10 - - - -
03/11:00pm 9.3 E 5 6 1015.3 - 0.0 - - 10 - - - -
03/10:30pm 9.5 E 6 7 1015.3 - 0.0 - - 10 - - - -
03/10:00pm 10.7 ESE 9 11 1015.4 - 0.0 - - 10 - - - -
03/09:30pm 11.1 ESE 8 8 1015.5 - 0.0 - - 10 - - - -
03/09:00pm 11.9 ESE 7 8 1015.4 - 0.0 - - 10 - - - -
03/08:30pm 12.5 S 6 7 1015.7 - 0.0 - - 10 - - - -
03/08:00pm 14.2 SSW 6 8 1015.7 - 0.0 - - 10 - - - -
03/07:30pm 14.8 SSW 8 10 1015.6 - 0.0 - - 10 - - - -
03/07:00pm 15.6 SW 6 8 1015.7 - 0.0 - - 10 - - - -
03/06:30pm 15.9 SW 7 9 1015.5 - 0.0 - - 10 - - - -
03/06:00pm 16.3 W 7 9 1015.5 - 0.0 - - 10 - - - -
03/05:30pm 16.0 WNW 6 9 1015.4 - 0.0 - - 10 - - - -
03/05:00pm 16.2 W 7 10 1015.5 - 0.0 - - 10 - - - -
03/04:30pm 16.0 W 8 11 1015.7 - 0.0 - - 10 - - - -
03/04:00pm 15.8 WNW 8 12 1015.7 - 0.0 - - 10 - - - -
03/03:30pm 16.0 WNW 10 13 1015.9 - 0.0 - - 10 - - - -
03/03:00pm 15.9 WNW 9 13 1015.9 - 0.0 - - 10 - - - -
03/02:30pm 16.4 WNW 9 13 1016.0 - 0.0 - - 10 - - - -
03/02:00pm 16.1 WNW 9 11 1016.1 - 0.0 - - 10 - - - -
03/01:30pm 16.7 WNW 9 13 1016.3 - 0.0 - - 10 - - - -
03/01:00pm 16.0 WNW 9 14 1016.5 - 0.0 - - 10 - - - -
03/12:30pm 15.8 NW 8 11 1016.6 - 0.0 - - 10 - - - -
03/12:00pm 15.5 WNW 7 12 1016.7 - 0.0 - - 10 - - - -
03/11:30am 14.8 W 7 10 1016.6 - 0.0 - Partly cloudy 10 - - - -
03/11:00am 15.0 W 9 13 1016.8 - 0.0 - Partly cloudy 10 - - - -
03/10:30am 14.8 W 9 14 1016.8 - 0.0 - Partly cloudy 10 - - - -
03/10:00am 15.0 WNW 8 12 1016.8 - 0.0 - Partly cloudy 10 - - - -
03/09:30am 15.3 WNW 7 10 1016.7 - 0.0 - Partly cloudy 10 - - - -
03/09:00am 14.5 WNW 6 8 1016.5 - 0.0 - - 10 - - - -
03/08:30am 13.8 W 6 7 1016.2 - 0.0 - - 10 - - - -
03/08:00am 12.9 CALM 0 0 1016.0 - 0.0 - Partly cloudy 10 - - - -
03/07:30am 10.6 ENE 2 3 1015.8 - 0.0 - Partly cloudy 10 - - - -
03/07:00am 7.6 E 4 4 1015.5 - 0.0 - - 10 - - - -
03/06:30am 6.6 ESE 3 5 1015.3 - 0.0 - - 10 - - - -
03/06:00am 5.3 ESE 4 5 1014.9 - 0.0 - - 10 - - - -
03/05:30am 6.3 ESE 4 5 1014.8 - 0.0 - - 10 - - - -
03/05:00am 5.8 ESE 4 5 1014.7 - 0.0 - - 10 - - - -
03/04:30am 6.2 ESE 5 5 1014.5 - 0.0 - - 10 - - - -
03/04:00am 7.5 SE 2 4 1014.6 - 0.0 - - 10 - - - -
03/03:30am 10.3 WSW 5 6 1014.7 - 0.0 - - 10 - - - -
03/03:00am 10.6 W 5 7 1014.9 - 0.0 - - 10 - - - -
03/02:30am 10.9 WSW 7 9 1015.1 - 0.0 - - 10 - - - -
03/02:00am 11.1 W 7 8 1015.3 - 0.0 - - 10 - - - -
03/01:30am 11.5 W 8 9 1015.7 - 0.0 - Partly cloudy 10 - - - -
03/01:00am 11.4 WSW 7 9 1015.7 - 0.0 - - 10 - - - -
03/12:30am 11.8 WSW 7 9 1015.7 - 0.0 - Partly cloudy 10 - - - -
03/12:00am 12.6 WSW 7 10 1015.7 - 0.0 - Cloudy 10 - - - -
 
Date/Time
EDT
Temp
°C
Wind Pressure Rain since
9am
mm
Weather Cloud Vis
km
Sea
Height
m
Swell
Dir  Spd
kts
Gust
kts
hPa Trend Height
m
Period
s
Dir
02/11:30pm 12.4 WSW 8 11 1015.8 - 0.0 - Partly cloudy 10 - - - -
02/11:00pm 12.7 W 11 16 1015.9 - 0.0 - Partly cloudy 10 - - - -
02/10:30pm 12.6 W 9 14 1015.8 - 0.0 - Partly cloudy 10 - - - -
02/10:00pm 12.7 W 10 15 1015.7 - 0.0 - - 10 - - - -
02/09:30pm 12.8 W 11 16 1015.4 - 0.0 - Partly cloudy 10 - - - -
02/09:00pm 12.8 W 10 14 1015.2 - 0.0 - Mostly clear 10 - - - -
02/08:30pm 13.0 W 11 15 1014.9 - 0.0 - Partly cloudy 10 - - - -
02/08:00pm 13.6 W 11 18 1014.6 - 0.0 - Partly cloudy 10 - - - -
02/07:30pm 14.0 W 13 18 1014.2 - 0.0 - Partly cloudy 10 - - - -

Other Formats:

Comma delimited format used in spreadsheet applications
http://www.bom.gov.au/fwo/IDV60701/IDV60701.94850.axf

JavaScript Object Notation format (JSON) in row-major order
http://www.bom.gov.au/fwo/IDV60701/IDV60701.94850.json